createdAt,value
2023-03-19T00:00:31.474Z,97.74
2023-03-19T00:01:31.406Z,97.83
2023-03-19T00:02:31.463Z,97.94
2023-03-19T00:03:31.421Z,98.45
2023-03-19T00:04:31.422Z,98.35
2023-03-19T00:05:31.485Z,98.24
2023-03-19T00:06:31.365Z,98.39
2023-03-19T00:07:31.335Z,98.80
2023-03-19T00:08:31.335Z,99.31
2023-03-19T00:09:31.321Z,99.52
2023-03-19T00:10:31.293Z,99.93
2023-03-19T00:11:31.267Z,99.99
2023-03-19T00:12:31.281Z,99.99
2023-03-19T00:13:31.247Z,99.99
2023-03-19T00:14:31.255Z,99.99
2023-03-19T00:15:31.254Z,99.99
2023-03-19T00:16:31.285Z,99.99
2023-03-19T00:17:31.176Z,99.99
2023-03-19T00:18:31.222Z,99.99
2023-03-19T00:19:31.162Z,99.99
2023-03-19T00:20:31.212Z,99.99
2023-03-19T00:21:31.140Z,99.99
2023-03-19T00:22:31.117Z,99.99
2023-03-19T00:23:31.110Z,99.99
2023-03-19T00:24:31.112Z,99.99
2023-03-19T00:25:31.132Z,99.99
2023-03-19T00:26:31.082Z,99.99
2023-03-19T00:27:31.095Z,99.99
2023-03-19T00:28:31.072Z,99.99
2023-03-19T00:29:31.015Z,99.99
2023-03-19T00:30:31.080Z,99.99
2023-03-19T00:31:30.998Z,99.99
2023-03-19T00:32:31.005Z,99.99
2023-03-19T00:33:30.955Z,99.99
2023-03-19T00:34:30.997Z,99.99
2023-03-19T00:35:30.916Z,99.99
2023-03-19T00:36:30.936Z,99.99
2023-03-19T00:37:31.241Z,99.99
2023-03-19T00:38:30.910Z,99.99
2023-03-19T00:39:30.874Z,99.99
2023-03-19T00:40:30.865Z,99.99
2023-03-19T00:41:30.850Z,99.99
2023-03-19T00:42:30.829Z,99.99
2023-03-19T00:43:30.857Z,99.99
2023-03-19T00:44:30.821Z,99.99
2023-03-19T00:45:31.195Z,99.99
2023-03-19T00:46:30.802Z,99.99
2023-03-19T00:47:30.787Z,99.99
2023-03-19T00:48:30.755Z,99.99
2023-03-19T00:49:30.727Z,99.99
2023-03-19T00:50:30.733Z,99.99
2023-03-19T00:51:30.715Z,99.99
2023-03-19T00:52:30.696Z,99.99
2023-03-19T00:53:30.659Z,99.99
2023-03-19T00:54:30.685Z,99.99
2023-03-19T00:55:30.706Z,99.99
2023-03-19T00:56:30.633Z,99.99
2023-03-19T00:57:30.609Z,99.99
2023-03-19T00:58:30.609Z,99.99
2023-03-19T00:59:30.604Z,99.99
2023-03-19T01:00:30.621Z,99.99
2023-03-19T01:01:30.596Z,99.99
2023-03-19T01:02:30.534Z,99.99
2023-03-19T01:03:30.520Z,99.99
2023-03-19T01:04:30.681Z,99.99
2023-03-19T01:05:30.557Z,99.99
2023-03-19T01:06:30.490Z,99.99
2023-03-19T01:07:30.477Z,99.99
2023-03-19T01:08:30.423Z,99.99
2023-03-19T01:09:30.442Z,99.99
2023-03-19T01:10:30.418Z,99.99
2023-03-19T01:11:30.415Z,99.99
2023-03-19T01:12:30.399Z,99.99
2023-03-19T01:13:30.363Z,99.99
2023-03-19T01:14:30.358Z,99.99
2023-03-19T01:15:30.326Z,99.99
2023-03-19T01:16:30.351Z,99.99
2023-03-19T01:17:30.292Z,99.99
2023-03-19T01:18:30.328Z,99.99
2023-03-19T01:19:30.299Z,99.99
2023-03-19T01:20:30.309Z,99.99
2023-03-19T01:21:30.247Z,99.99
2023-03-19T01:22:30.457Z,99.99
2023-03-19T01:23:30.223Z,99.99
2023-03-19T01:24:30.229Z,99.99
2023-03-19T01:25:30.190Z,99.99
2023-03-19T01:26:30.187Z,99.99
2023-03-19T01:27:30.164Z,99.99
2023-03-19T01:28:30.180Z,99.99
2023-03-19T01:29:30.153Z,99.99
2023-03-19T01:30:30.129Z,99.99
2023-03-19T01:31:30.190Z,99.99
2023-03-19T01:32:30.198Z,99.99
2023-03-19T01:33:30.072Z,99.99
2023-03-19T01:34:30.062Z,99.99
2023-03-19T01:35:30.157Z,99.99
2023-03-19T01:36:30.050Z,99.99
2023-03-19T01:37:30.029Z,99.99
2023-03-19T01:38:30.015Z,99.99
2023-03-19T01:39:30.012Z,99.99
2023-03-19T01:40:29.996Z,99.99
2023-03-19T01:41:29.993Z,99.99
2023-03-19T01:42:29.964Z,99.99
2023-03-19T01:43:29.941Z,99.99
2023-03-19T01:44:29.944Z,99.99
2023-03-19T01:45:29.935Z,99.99
2023-03-19T01:46:30.113Z,99.99
2023-03-19T01:47:29.926Z,99.99
2023-03-19T01:48:29.899Z,99.99
2023-03-19T01:49:29.854Z,99.99
2023-03-19T01:50:29.874Z,99.99
2023-03-19T01:51:29.836Z,99.99
2023-03-19T01:52:29.856Z,99.99
2023-03-19T01:53:29.805Z,99.99
2023-03-19T01:54:29.835Z,99.99
2023-03-19T01:55:29.809Z,99.99
2023-03-19T01:56:29.764Z,99.99
2023-03-19T01:57:29.743Z,99.99
2023-03-19T01:58:29.778Z,99.99
2023-03-19T01:59:29.716Z,99.99
2023-03-19T02:00:29.697Z,99.99
2023-03-19T02:01:29.740Z,99.99
2023-03-19T02:02:29.704Z,99.99
2023-03-19T02:03:29.643Z,99.99
2023-03-19T02:04:29.753Z,99.99
2023-03-19T02:05:29.637Z,99.99
2023-03-19T02:06:29.596Z,99.99
2023-03-19T02:07:29.633Z,99.99
2023-03-19T02:08:29.603Z,99.99
2023-03-19T02:09:29.622Z,99.99
2023-03-19T02:10:29.594Z,99.99
2023-03-19T02:11:29.542Z,99.99
2023-03-19T02:12:29.530Z,99.99
2023-03-19T02:13:29.571Z,99.99
2023-03-19T02:14:29.535Z,99.99
2023-03-19T02:15:29.528Z,99.99
2023-03-19T02:16:29.557Z,99.99
2023-03-19T02:17:29.498Z,99.99
2023-03-19T02:18:29.460Z,99.99
2023-03-19T02:19:29.464Z,99.99
2023-03-19T02:20:29.458Z,99.99
2023-03-19T02:21:29.400Z,99.99
2023-03-19T02:22:29.395Z,99.99
2023-03-19T02:23:29.374Z,99.99
2023-03-19T02:24:29.351Z,99.99
2023-03-19T02:25:29.396Z,99.99
2023-03-19T02:26:29.319Z,99.99
2023-03-19T02:27:29.310Z,99.99
2023-03-19T02:28:29.335Z,99.99
2023-03-19T02:29:29.295Z,99.99
2023-03-19T02:30:29.279Z,99.99
2023-03-19T02:31:29.334Z,99.99
2023-03-19T02:32:29.247Z,99.99
2023-03-19T02:33:29.238Z,99.99
2023-03-19T02:34:29.219Z,99.99
2023-03-19T02:35:29.213Z,99.99
2023-03-19T02:36:29.243Z,99.99
2023-03-19T02:37:31.201Z,99.99
2023-03-19T02:38:29.168Z,99.99
2023-03-19T02:39:29.223Z,99.99
2023-03-19T02:40:29.149Z,99.99
2023-03-19T02:41:29.154Z,99.99
2023-03-19T02:42:29.126Z,99.99
2023-03-19T02:43:29.082Z,99.99
2023-03-19T02:44:29.196Z,99.99
2023-03-19T02:45:29.080Z,99.99
2023-03-19T02:46:29.122Z,99.99
2023-03-19T02:47:29.059Z,99.99
2023-03-19T02:48:29.017Z,99.99
2023-03-19T02:49:29.007Z,99.99
2023-03-19T02:50:28.985Z,99.99
2023-03-19T02:51:28.966Z,99.99
2023-03-19T02:52:29.006Z,99.99
2023-03-19T02:53:28.983Z,99.99
2023-03-19T02:54:28.923Z,99.99
2023-03-19T02:55:28.953Z,99.99
2023-03-19T02:56:28.954Z,99.99
2023-03-19T02:57:28.886Z,99.99
2023-03-19T02:58:28.881Z,99.99
2023-03-19T02:59:28.893Z,99.99
2023-03-19T03:00:28.917Z,99.99
2023-03-19T03:01:28.867Z,99.99
2023-03-19T03:02:28.907Z,99.99
2023-03-19T03:03:28.836Z,99.99
2023-03-19T03:04:28.789Z,99.99
2023-03-19T03:05:28.787Z,99.99
2023-03-19T03:06:28.804Z,99.99
2023-03-19T03:07:28.773Z,99.99
2023-03-19T03:08:28.767Z,99.99
2023-03-19T03:09:28.757Z,99.99
2023-03-19T03:10:28.722Z,99.99
2023-03-19T03:11:28.729Z,99.99
2023-03-19T03:12:28.702Z,99.99
2023-03-19T03:13:28.697Z,99.99
2023-03-19T03:14:28.663Z,99.99
2023-03-19T03:15:28.674Z,99.99
2023-03-19T03:16:28.692Z,99.99
2023-03-19T03:17:28.625Z,99.99
2023-03-19T03:18:28.591Z,99.99
2023-03-19T03:19:28.621Z,99.99
2023-03-19T03:20:28.608Z,99.99
2023-03-19T03:21:28.679Z,99.99
2023-03-19T03:22:28.542Z,99.99
2023-03-19T03:23:28.538Z,99.99
2023-03-19T03:24:28.529Z,99.99
2023-03-19T03:25:28.509Z,99.99
2023-03-19T03:26:28.510Z,99.99
2023-03-19T03:27:28.528Z,99.99
2023-03-19T03:28:28.483Z,99.99
2023-03-19T03:29:28.478Z,99.99
2023-03-19T03:30:28.440Z,99.99
2023-03-19T03:31:28.458Z,99.99
2023-03-19T03:32:28.417Z,99.99
2023-03-19T03:33:28.430Z,99.99
2023-03-19T03:34:28.375Z,99.99
2023-03-19T03:35:28.357Z,99.99
2023-03-19T03:36:28.372Z,99.99
2023-03-19T03:37:28.385Z,99.99
2023-03-19T03:38:28.334Z,99.99
2023-03-19T03:39:28.334Z,99.99
2023-03-19T03:40:28.291Z,99.99
2023-03-19T03:41:28.285Z,99.99
2023-03-19T03:42:28.265Z,99.99
2023-03-19T03:43:28.271Z,99.99
2023-03-19T03:44:28.235Z,99.99
2023-03-19T03:45:28.337Z,99.99
2023-03-19T03:46:28.217Z,99.99
2023-03-19T03:47:28.212Z,99.99
2023-03-19T03:48:28.172Z,99.99
2023-03-19T03:49:28.200Z,99.82
2023-03-19T03:50:28.159Z,99.99
2023-03-19T03:51:28.205Z,99.99
2023-03-19T03:52:28.104Z,99.99
2023-03-19T03:53:28.148Z,99.99
2023-03-19T03:54:28.106Z,99.99
2023-03-19T03:55:28.089Z,99.91
2023-03-19T03:56:28.123Z,99.99
2023-03-19T03:57:28.052Z,99.99
2023-03-19T03:58:28.048Z,99.99
2023-03-19T03:59:28.065Z,99.99
2023-03-19T04:00:28.004Z,99.99
2023-03-19T04:01:28.024Z,99.82
2023-03-19T04:02:28.048Z,99.99
2023-03-19T04:03:28.095Z,99.99
2023-03-19T04:04:27.982Z,99.99
2023-03-19T04:05:27.933Z,99.99
2023-03-19T04:06:27.988Z,99.99
2023-03-19T04:07:28.010Z,99.99
2023-03-19T04:08:27.906Z,99.91
2023-03-19T04:09:27.904Z,99.51
2023-03-19T04:10:27.899Z,98.99
2023-03-19T04:11:27.882Z,99.41
2023-03-19T04:12:27.852Z,99.20
2023-03-19T04:13:27.837Z,99.10
2023-03-19T04:14:27.845Z,99.41
2023-03-19T04:15:27.825Z,99.10
2023-03-19T04:16:27.803Z,98.99
2023-03-19T04:17:27.784Z,98.49
2023-03-19T04:18:27.765Z,97.41
2023-03-19T04:19:27.749Z,97.62
2023-03-19T04:20:27.730Z,97.82
2023-03-19T04:21:27.722Z,98.03
2023-03-19T04:22:27.713Z,98.03
2023-03-19T04:23:27.676Z,97.72
2023-03-19T04:24:27.731Z,97.62
2023-03-19T04:25:27.696Z,96.70
2023-03-19T04:26:27.645Z,97.41
2023-03-19T04:27:27.691Z,97.00
2023-03-19T04:28:27.639Z,96.86
2023-03-19T04:29:27.666Z,96.34
2023-03-19T04:30:27.714Z,96.45
2023-03-19T04:31:27.673Z,96.66
2023-03-19T04:32:27.595Z,96.75
2023-03-19T04:33:27.574Z,96.75
2023-03-19T04:34:27.521Z,96.96
2023-03-19T04:35:27.539Z,96.66
2023-03-19T04:36:27.508Z,96.66
2023-03-19T04:37:27.475Z,96.55
2023-03-19T04:38:27.445Z,96.75
2023-03-19T04:39:27.505Z,96.86
2023-03-19T04:40:27.467Z,97.16
2023-03-19T04:41:27.459Z,96.66
2023-03-19T04:42:27.446Z,96.75
2023-03-19T04:43:27.446Z,96.96
2023-03-19T04:44:27.361Z,96.55
2023-03-19T04:45:27.415Z,96.45
2023-03-19T04:46:27.396Z,96.86
2023-03-19T04:47:27.330Z,95.28
2023-03-19T04:48:27.302Z,95.48
2023-03-19T04:49:27.335Z,95.28
2023-03-19T04:50:27.296Z,95.38
2023-03-19T04:51:27.317Z,95.69
2023-03-19T04:52:27.275Z,95.89
2023-03-19T04:53:27.256Z,96.20
2023-03-19T04:54:27.247Z,95.28
2023-03-19T04:55:27.259Z,95.28
2023-03-19T04:56:27.198Z,95.69
2023-03-19T04:57:27.193Z,95.79
2023-03-19T04:58:27.190Z,95.07
2023-03-19T04:59:27.203Z,94.93
2023-03-19T05:00:27.178Z,95.44
2023-03-19T05:01:27.264Z,94.11
2023-03-19T05:02:27.112Z,94.42
2023-03-19T05:03:27.133Z,94.52
2023-03-19T05:04:27.109Z,95.03
2023-03-19T05:05:27.101Z,95.13
2023-03-19T05:06:27.060Z,95.23
2023-03-19T05:07:27.092Z,95.44
2023-03-19T05:08:27.052Z,95.64
2023-03-19T05:09:27.007Z,96.15
2023-03-19T05:10:26.995Z,96.92
2023-03-19T05:11:27.014Z,97.63
2023-03-19T05:12:26.970Z,97.83
2023-03-19T05:13:26.963Z,98.55
2023-03-19T05:14:26.948Z,98.86
2023-03-19T05:15:26.936Z,99.41
2023-03-19T05:16:26.913Z,99.99
2023-03-19T05:17:26.912Z,99.99
2023-03-19T05:18:26.887Z,99.99
2023-03-19T05:19:26.888Z,99.99
2023-03-19T05:20:26.841Z,99.99
2023-03-19T05:21:26.832Z,99.99
2023-03-19T05:22:26.818Z,99.99
2023-03-19T05:23:26.816Z,99.99
2023-03-19T05:24:26.788Z,99.99
2023-03-19T05:25:26.783Z,99.99
2023-03-19T05:26:26.748Z,99.99
2023-03-19T05:27:26.752Z,99.99
2023-03-19T05:28:26.738Z,99.99
2023-03-19T05:29:26.756Z,99.99
2023-03-19T05:30:26.701Z,99.99
2023-03-19T05:31:26.711Z,99.99
2023-03-19T05:32:26.680Z,99.99
2023-03-19T05:33:26.666Z,99.99
2023-03-19T05:34:26.678Z,99.99
2023-03-19T05:35:26.684Z,99.99
2023-03-19T05:36:26.606Z,99.99
2023-03-19T05:37:26.610Z,99.99
2023-03-19T05:38:26.641Z,99.99
2023-03-19T05:39:26.577Z,99.99
2023-03-19T05:40:26.575Z,99.99
2023-03-19T05:41:26.594Z,99.99
2023-03-19T05:42:26.541Z,99.99
2023-03-19T05:43:26.540Z,99.99
2023-03-19T05:44:26.524Z,99.99
2023-03-19T05:45:26.483Z,99.99
2023-03-19T05:46:26.480Z,99.99
2023-03-19T05:47:26.474Z,99.99
2023-03-19T05:48:26.435Z,99.99
2023-03-19T05:49:26.448Z,99.99
2023-03-19T05:50:26.413Z,99.99
2023-03-19T05:51:26.391Z,99.99
2023-03-19T05:52:26.387Z,99.99
2023-03-19T05:53:26.397Z,99.99
2023-03-19T05:54:26.364Z,99.99
2023-03-19T05:55:26.427Z,99.99
2023-03-19T05:56:26.351Z,99.99
2023-03-19T05:57:26.336Z,99.99
2023-03-19T05:58:26.293Z,99.99
2023-03-19T05:59:26.320Z,99.99
2023-03-19T06:00:26.277Z,99.99
2023-03-19T06:01:26.263Z,99.99
2023-03-19T06:02:26.274Z,99.99
2023-03-19T06:03:26.226Z,99.99
2023-03-19T06:04:26.247Z,99.99
2023-03-19T06:05:26.212Z,99.99
2023-03-19T06:06:26.175Z,99.99
2023-03-19T06:07:26.189Z,99.99
2023-03-19T06:08:26.141Z,99.99
2023-03-19T06:09:26.133Z,99.99
2023-03-19T06:10:26.165Z,99.99
2023-03-19T06:11:26.094Z,99.99
2023-03-19T06:12:26.115Z,99.99
2023-03-19T06:13:26.102Z,99.99
2023-03-19T06:14:26.062Z,99.99
2023-03-19T06:15:26.053Z,99.99
2023-03-19T06:16:26.099Z,99.99
2023-03-19T06:17:26.025Z,99.99
2023-03-19T06:18:26.003Z,99.99
2023-03-19T06:19:26.005Z,99.99
2023-03-19T06:20:25.976Z,99.99
2023-03-19T06:21:25.985Z,99.99
2023-03-19T06:22:25.946Z,99.99
2023-03-19T06:23:25.955Z,99.99
2023-03-19T06:24:25.922Z,99.99
2023-03-19T06:25:25.934Z,99.99
2023-03-19T06:26:25.887Z,99.99
2023-03-19T06:27:25.912Z,99.99
2023-03-19T06:28:25.894Z,99.99
2023-03-19T06:29:25.857Z,99.99
2023-03-19T06:30:25.817Z,99.99
2023-03-19T06:31:25.870Z,99.99
2023-03-19T06:32:25.809Z,99.99
2023-03-19T06:33:25.820Z,99.99
2023-03-19T06:34:25.786Z,99.99
2023-03-19T06:35:25.801Z,99.99
2023-03-19T06:36:25.742Z,99.99
2023-03-19T06:37:25.720Z,99.99
2023-03-19T06:38:25.742Z,99.99
2023-03-19T06:39:25.714Z,99.99
2023-03-19T06:40:25.707Z,99.99
2023-03-19T06:41:25.699Z,99.99
2023-03-19T06:42:25.741Z,99.99
2023-03-19T06:43:25.633Z,99.99
2023-03-19T06:44:25.651Z,99.99
2023-03-19T06:45:25.621Z,99.99
2023-03-19T06:46:25.594Z,99.99
2023-03-19T06:47:25.576Z,99.99
2023-03-19T06:48:25.559Z,99.99
2023-03-19T06:49:25.568Z,99.99
2023-03-19T06:50:25.558Z,99.99
2023-03-19T06:51:25.545Z,99.99
2023-03-19T06:52:25.550Z,99.99
2023-03-19T06:53:25.505Z,99.99
2023-03-19T06:54:28.169Z,99.99
2023-03-19T06:55:25.483Z,99.99
2023-03-19T06:56:25.455Z,99.99
2023-03-19T06:57:25.473Z,99.99
2023-03-19T06:58:25.414Z,99.99
2023-03-19T06:59:25.414Z,99.99
2023-03-19T07:00:25.403Z,99.99
2023-03-19T07:01:25.477Z,99.99
2023-03-19T07:02:25.364Z,99.99
2023-03-19T07:03:25.343Z,99.99
2023-03-19T07:04:25.384Z,99.99
2023-03-19T07:05:25.332Z,99.99
2023-03-19T07:06:25.342Z,99.99
2023-03-19T07:07:25.304Z,99.99
2023-03-19T07:08:25.296Z,99.99
2023-03-19T07:09:25.312Z,99.99
2023-03-19T07:10:25.257Z,99.99
2023-03-19T07:11:25.245Z,99.99
2023-03-19T07:12:25.234Z,99.99
2023-03-19T07:13:25.214Z,99.99
2023-03-19T07:14:25.188Z,99.99
2023-03-19T07:15:25.184Z,99.99
2023-03-19T07:16:25.166Z,99.99
2023-03-19T07:17:25.147Z,99.99
2023-03-19T07:18:25.164Z,99.99
2023-03-19T07:19:25.155Z,99.99
2023-03-19T07:20:25.137Z,99.99
2023-03-19T07:21:25.078Z,99.99
2023-03-19T07:22:25.080Z,99.99
2023-03-19T07:23:25.041Z,99.99
2023-03-19T07:24:25.089Z,99.99
2023-03-19T07:25:25.022Z,99.99
2023-03-19T07:26:25.021Z,99.99
2023-03-19T07:27:24.993Z,99.99
2023-03-19T07:28:24.984Z,99.99
2023-03-19T07:29:24.984Z,99.99
2023-03-19T07:30:25.003Z,99.99
2023-03-19T07:31:24.992Z,99.99
2023-03-19T07:32:25.428Z,99.99
2023-03-19T07:33:24.938Z,99.99
2023-03-19T07:34:24.913Z,99.99
2023-03-19T07:35:24.950Z,99.99
2023-03-19T07:36:24.849Z,99.99
2023-03-19T07:37:24.835Z,99.99
2023-03-19T07:38:24.852Z,99.99
2023-03-19T07:39:24.812Z,99.99
2023-03-19T07:40:24.845Z,99.99
2023-03-19T07:41:24.781Z,99.99
2023-03-19T07:42:24.776Z,99.99
2023-03-19T07:43:24.893Z,99.99
2023-03-19T07:44:24.763Z,99.99
2023-03-19T07:45:24.872Z,99.99
2023-03-19T07:46:24.742Z,99.99
2023-03-19T07:47:29.297Z,99.99
2023-03-19T07:48:24.729Z,99.99
2023-03-19T07:49:24.658Z,99.99
2023-03-19T07:50:24.698Z,99.99
2023-03-19T07:51:24.631Z,99.99
2023-03-19T07:52:24.704Z,99.99
2023-03-19T07:53:24.634Z,99.99
2023-03-19T07:54:24.640Z,99.99
2023-03-19T07:55:24.699Z,99.99
2023-03-19T07:56:24.595Z,99.99
2023-03-19T07:57:24.566Z,99.99
2023-03-19T07:58:24.565Z,99.99
2023-03-19T07:59:24.557Z,99.99
2023-03-19T08:00:24.501Z,99.99
2023-03-19T08:01:24.494Z,99.99
2023-03-19T08:02:24.543Z,99.99
2023-03-19T08:03:24.465Z,99.99
2023-03-19T08:04:24.479Z,99.99
2023-03-19T08:05:24.435Z,99.99
2023-03-19T08:06:24.424Z,99.99
2023-03-19T08:07:24.389Z,99.99
2023-03-19T08:08:24.438Z,99.99
2023-03-19T08:09:24.372Z,99.99
2023-03-19T08:10:24.429Z,99.99
2023-03-19T08:11:24.451Z,99.99
2023-03-19T08:12:24.330Z,99.99
2023-03-19T08:13:24.342Z,99.99
2023-03-19T08:14:24.323Z,99.99
2023-03-19T08:15:24.297Z,99.99
2023-03-19T08:16:24.320Z,99.99
2023-03-19T08:17:24.246Z,99.99
2023-03-19T08:18:24.255Z,99.99
2023-03-19T08:19:24.225Z,99.18
2023-03-19T08:20:24.219Z,98.77
2023-03-19T08:21:24.198Z,99.08
2023-03-19T08:22:24.273Z,99.79
2023-03-19T08:23:24.188Z,99.18
2023-03-19T08:24:24.162Z,98.72
2023-03-19T08:25:24.138Z,99.59
2023-03-19T08:26:24.149Z,99.79
2023-03-19T08:27:24.139Z,99.99
2023-03-19T08:28:24.123Z,99.99
2023-03-19T08:29:24.153Z,98.77
2023-03-19T08:30:24.110Z,99.39
2023-03-19T08:31:24.107Z,99.49
2023-03-19T08:32:31.619Z,99.79
2023-03-19T08:33:24.069Z,99.99
2023-03-19T08:34:24.105Z,98.98
2023-03-19T08:35:24.044Z,98.41
2023-03-19T08:36:24.046Z,98.93
2023-03-19T08:37:24.001Z,98.72
2023-03-19T08:38:23.978Z,98.98
2023-03-19T08:39:23.943Z,98.77
2023-03-19T08:40:23.929Z,98.88
2023-03-19T08:41:23.948Z,98.27
2023-03-19T08:42:23.912Z,97.96
2023-03-19T08:43:23.933Z,98.27
2023-03-19T08:44:23.916Z,98.77
2023-03-19T08:45:23.922Z,98.93
2023-03-19T08:46:23.880Z,99.04
2023-03-19T08:47:23.841Z,98.83
2023-03-19T08:48:23.845Z,98.63
2023-03-19T08:49:23.795Z,97.56
2023-03-19T08:50:23.804Z,97.77
2023-03-19T08:51:23.832Z,96.95
2023-03-19T08:52:23.859Z,96.34
2023-03-19T08:53:23.759Z,95.28
2023-03-19T08:54:23.748Z,94.66
2023-03-19T08:55:23.767Z,95.17
2023-03-19T08:56:23.740Z,94.66
2023-03-19T08:57:23.697Z,93.80
2023-03-19T08:58:23.792Z,94.72
2023-03-19T08:59:23.666Z,95.18
2023-03-19T09:00:23.662Z,93.66
2023-03-19T09:01:23.755Z,93.96
2023-03-19T09:02:23.723Z,94.07
2023-03-19T09:03:23.646Z,93.62
2023-03-19T09:04:23.662Z,92.44
2023-03-19T09:05:23.597Z,93.35
2023-03-19T09:06:32.295Z,92.44
2023-03-19T09:07:23.534Z,92.94
2023-03-19T09:08:23.536Z,92.49
2023-03-19T09:09:23.515Z,93.01
2023-03-19T09:10:23.510Z,92.60
2023-03-19T09:11:23.558Z,92.65
2023-03-19T09:12:23.534Z,92.14
2023-03-19T09:13:23.496Z,94.08
2023-03-19T09:14:23.465Z,90.52
2023-03-19T09:15:23.450Z,91.23
2023-03-19T09:16:23.544Z,91.23
2023-03-19T09:17:23.406Z,92.41
2023-03-19T09:18:23.400Z,90.88
2023-03-19T09:19:23.480Z,89.30
2023-03-19T09:20:23.484Z,90.01
2023-03-19T09:21:23.357Z,90.78
2023-03-19T09:22:26.468Z,89.87
2023-03-19T09:23:23.352Z,91.55
2023-03-19T09:24:23.343Z,91.55
2023-03-19T09:25:23.301Z,89.22
2023-03-19T09:26:23.336Z,91.55
2023-03-19T09:27:23.580Z,89.66
2023-03-19T09:28:24.403Z,90.07
2023-03-19T09:29:23.264Z,91.29
2023-03-19T09:30:23.447Z,90.64
2023-03-19T09:31:24.568Z,90.53
2023-03-19T09:32:23.471Z,90.39
2023-03-19T09:33:23.282Z,88.97
2023-03-19T09:34:23.206Z,89.88
2023-03-19T09:35:23.206Z,87.95
2023-03-19T09:36:23.154Z,88.46
2023-03-19T09:37:23.156Z,88.67
2023-03-19T09:38:23.221Z,88.40
2023-03-19T09:39:23.102Z,89.07
2023-03-19T09:40:23.288Z,89.01
2023-03-19T09:41:23.083Z,88.40
2023-03-19T09:42:23.432Z,88.50
2023-03-19T09:43:23.127Z,89.22
2023-03-19T09:44:23.151Z,89.92
2023-03-19T09:45:23.980Z,91.25
2023-03-19T09:46:23.138Z,91.45
2023-03-19T09:47:23.057Z,90.13
2023-03-19T09:48:23.678Z,90.23
2023-03-19T09:49:22.966Z,90.78
2023-03-19T09:50:22.979Z,90.27
2023-03-19T09:51:22.951Z,91.45
2023-03-19T09:52:22.975Z,90.37
2023-03-19T09:53:22.960Z,90.88
2023-03-19T09:54:22.955Z,90.78
2023-03-19T09:55:23.110Z,92.00
2023-03-19T09:56:22.902Z,90.78
2023-03-19T09:57:23.888Z,91.60
2023-03-19T09:58:22.875Z,91.09
2023-03-19T09:59:22.884Z,91.09
2023-03-19T10:00:22.950Z,90.99
2023-03-19T10:01:22.876Z,90.27
2023-03-19T10:02:22.837Z,90.37
2023-03-19T10:03:22.796Z,89.56
2023-03-19T10:04:22.979Z,91.19
2023-03-19T10:05:22.760Z,90.44
2023-03-19T10:06:22.773Z,89.22
2023-03-19T10:07:22.758Z,88.34
2023-03-19T10:08:22.741Z,89.36
2023-03-19T10:09:22.711Z,88.34
2023-03-19T10:10:22.696Z,89.36
2023-03-19T10:11:22.689Z,89.62
2023-03-19T10:12:22.669Z,88.91
2023-03-19T10:13:22.696Z,88.81
2023-03-19T10:14:22.658Z,87.85
2023-03-19T10:15:22.675Z,87.95
2023-03-19T10:16:22.735Z,87.55
2023-03-19T10:17:22.592Z,88.06
2023-03-19T10:18:22.635Z,87.92
2023-03-19T10:19:22.608Z,87.40
2023-03-19T10:20:22.550Z,86.43
2023-03-19T10:21:22.594Z,87.95
2023-03-19T10:22:22.546Z,86.53
2023-03-19T10:23:22.512Z,86.68
2023-03-19T10:24:22.506Z,87.38
2023-03-19T10:25:22.522Z,87.18
2023-03-19T10:26:22.495Z,87.95
2023-03-19T10:27:22.493Z,88.26
2023-03-19T10:28:22.498Z,88.01
2023-03-19T10:29:22.429Z,85.88
2023-03-19T10:30:22.467Z,87.92
2023-03-19T10:31:22.549Z,87.37
2023-03-19T10:32:22.399Z,85.84
2023-03-19T10:33:22.419Z,84.97
2023-03-19T10:34:22.377Z,86.29
2023-03-19T10:35:22.363Z,86.96
2023-03-19T10:36:22.667Z,87.16
2023-03-19T10:37:22.411Z,86.45
2023-03-19T10:38:22.448Z,85.74
2023-03-19T10:39:22.307Z,85.17
2023-03-19T10:40:22.324Z,85.07
2023-03-19T10:41:22.309Z,86.39
2023-03-19T10:42:22.271Z,85.98
2023-03-19T10:43:22.361Z,86.33
2023-03-19T10:44:22.290Z,86.27
2023-03-19T10:45:22.271Z,86.71
2023-03-19T10:46:22.254Z,87.23
2023-03-19T10:47:22.200Z,88.48
2023-03-19T10:48:22.192Z,88.75
2023-03-19T10:49:22.215Z,89.36
2023-03-19T10:50:22.189Z,88.69
2023-03-19T10:51:22.183Z,88.39
2023-03-19T10:52:22.180Z,89.30
2023-03-19T10:53:22.171Z,90.52
2023-03-19T10:54:22.176Z,89.50
2023-03-19T10:55:22.110Z,89.34
2023-03-19T10:56:22.073Z,89.95
2023-03-19T10:57:22.097Z,90.46
2023-03-19T10:58:22.082Z,90.77
2023-03-19T10:59:22.054Z,90.97
2023-03-19T11:00:22.039Z,92.23
2023-03-19T11:01:22.052Z,93.25
2023-03-19T11:02:22.016Z,93.55
2023-03-19T11:03:22.004Z,93.40
2023-03-19T11:04:21.977Z,94.31
2023-03-19T11:05:21.987Z,94.42
2023-03-19T11:06:21.934Z,95.17
2023-03-19T11:07:21.910Z,95.78
2023-03-19T11:08:34.981Z,95.73
2023-03-19T11:09:22.962Z,96.95
2023-03-19T11:10:21.883Z,97.66
2023-03-19T11:11:21.857Z,98.48
2023-03-19T11:12:21.899Z,99.04
2023-03-19T11:13:21.886Z,99.54
2023-03-19T11:14:21.896Z,99.80
2023-03-19T11:15:21.833Z,99.99
2023-03-19T11:16:21.857Z,99.99
2023-03-19T11:17:21.819Z,99.99
2023-03-19T11:18:21.764Z,99.99
2023-03-19T11:19:21.790Z,99.99
2023-03-19T11:20:21.746Z,99.99
2023-03-19T11:21:21.766Z,99.99
2023-03-19T11:22:21.719Z,99.99
2023-03-19T11:23:21.712Z,99.99
2023-03-19T11:24:21.704Z,99.99
2023-03-19T11:25:21.724Z,99.99
2023-03-19T11:26:21.674Z,99.99
2023-03-19T11:27:21.674Z,99.99
2023-03-19T11:28:24.190Z,99.99
2023-03-19T11:29:21.697Z,99.99
2023-03-19T11:30:21.606Z,99.99
2023-03-19T11:31:21.741Z,99.99
2023-03-19T11:32:22.654Z,99.99
2023-03-19T11:33:21.764Z,99.99
2023-03-19T11:34:21.543Z,99.99
2023-03-19T11:35:21.541Z,99.99
2023-03-19T11:36:21.520Z,99.99
2023-03-19T11:37:21.561Z,99.51
2023-03-19T11:38:21.492Z,99.00
2023-03-19T11:39:21.518Z,98.90
2023-03-19T11:40:22.814Z,99.36
2023-03-19T11:41:21.515Z,98.75
2023-03-19T11:42:21.447Z,99.05
2023-03-19T11:43:21.503Z,98.91
2023-03-19T11:44:21.423Z,98.91
2023-03-19T11:45:21.435Z,96.92
2023-03-19T11:46:21.423Z,96.72
2023-03-19T11:47:27.462Z,98.35
2023-03-19T11:48:22.352Z,98.10
2023-03-19T11:49:21.371Z,98.10
2023-03-19T11:50:21.364Z,96.12
2023-03-19T11:51:21.347Z,96.79
2023-03-19T11:52:21.316Z,96.23
2023-03-19T11:53:21.289Z,95.07
2023-03-19T11:54:21.290Z,92.58
2023-03-19T11:55:21.291Z,92.68
2023-03-19T11:56:21.285Z,94.82
2023-03-19T11:57:21.288Z,91.61
2023-03-19T11:58:21.224Z,92.47
2023-03-19T11:59:21.263Z,93.48
2023-03-19T12:00:21.190Z,93.79
2023-03-19T12:01:21.178Z,95.21
2023-03-19T12:02:21.188Z,93.89
2023-03-19T12:03:21.190Z,93.74
2023-03-19T12:04:21.154Z,93.44
2023-03-19T12:05:21.121Z,93.24
2023-03-19T12:06:21.122Z,92.68
2023-03-19T12:07:21.159Z,93.19
2023-03-19T12:08:21.091Z,89.84
2023-03-19T12:09:21.070Z,90.49
2023-03-19T12:10:21.091Z,90.35
2023-03-19T12:11:21.083Z,90.86
2023-03-19T12:12:21.068Z,89.59
2023-03-19T12:13:21.045Z,92.33
2023-03-19T12:14:21.042Z,89.45
2023-03-19T12:15:21.019Z,88.84
2023-03-19T12:16:21.065Z,89.92
2023-03-19T12:17:20.976Z,91.64
2023-03-19T12:18:20.970Z,89.17
2023-03-19T12:19:21.235Z,87.45
2023-03-19T12:20:20.935Z,84.55
2023-03-19T12:21:20.934Z,85.56
2023-03-19T12:22:20.903Z,86.16
2023-03-19T12:23:21.105Z,86.68
2023-03-19T12:24:20.910Z,88.90
2023-03-19T12:25:20.902Z,85.76
2023-03-19T12:26:20.846Z,85.76
2023-03-19T12:27:20.845Z,85.25
2023-03-19T12:28:20.830Z,84.75
2023-03-19T12:29:20.809Z,85.31
2023-03-19T12:30:20.947Z,85.01
2023-03-19T12:31:20.867Z,84.75
2023-03-19T12:32:20.771Z,84.34
2023-03-19T12:33:20.757Z,85.96
2023-03-19T12:34:20.788Z,85.46
2023-03-19T12:35:20.769Z,84.70
2023-03-19T12:36:20.796Z,83.55
2023-03-19T12:37:20.696Z,84.19
2023-03-19T12:38:20.692Z,81.57
2023-03-19T12:39:20.713Z,81.70
2023-03-19T12:40:20.677Z,80.41
2023-03-19T12:41:20.661Z,79.77
2023-03-19T12:42:20.662Z,75.10
2023-03-19T12:43:20.621Z,77.29
2023-03-19T12:44:20.639Z,78.34
2023-03-19T12:45:20.626Z,80.71
2023-03-19T12:46:20.615Z,78.42
2023-03-19T12:47:20.594Z,79.16
2023-03-19T12:48:20.552Z,80.62
2023-03-19T12:49:20.583Z,82.20
2023-03-19T12:50:20.502Z,81.79
2023-03-19T12:51:20.533Z,82.90
2023-03-19T12:52:20.480Z,82.36